Latest Weather Observations for Kingscote

IDS60801

Issued at 3:31 am CST Wednesday 1 June 2016 (issued every 30 minutes, with the page automatically refreshed every 10 minutes)

About weather observations | Map of weather stations | Latest weather observations for SA | Other Formats
Station Details ID: 022841 Name: KINGSCOTE AERO Lat: -35.71 Lon: 137.52 Height: 6.23 m
Data from the previous 72 hours. | See also: Recent months at Kingscote
Date/Time
CST
Temp
°C
App
Temp
°C
Dew
Point
Rel
Hum
%
Delta-T
°C
Wind Press
QNH
hPa
Press
MSL
hPa
Rain
since 9 am
mm
Dir
 
Spd
km/h
Gust
km/h
Spd
kts
Gust
kts
01/03:30am 9.0 8.7 8.6 97 0.2 CALM 0 0 0 0 1023.0 1023.0 0.0
01/03:00am 9.6 9.4 9.1 97 0.2 CALM 0 0 0 0 1023.0 1023.0 0.0
01/02:30am 10.2 10.2 9.9 98 0.2 CALM 0 0 0 0 1022.9 1022.9 0.0
01/02:00am 9.3 9.0 8.8 97 0.2 CALM 0 0 0 0 1023.0 1023.0 0.0
01/01:30am 9.2 8.9 8.7 97 0.2 CALM 0 0 0 0 1022.9 1022.9 0.0
01/01:06am 8.8 8.4 8.4 97 0.2 CALM 0 0 0 0 1023.0 1023.0 0.0
01/01:00am 8.7 8.3 8.3 97 0.2 CALM 0 0 0 0 1023.0 1023.0 0.0
01/12:30am 9.2 8.9 8.7 97 0.2 CALM 0 0 0 0 1023.2 1023.2 0.0
01/12:00am 8.3 7.8 7.9 97 0.2 CALM 0 0 0 0 1023.3 1023.3 0.0
 
Date/Time
CST
Temp
°C
App
Temp
°C
Dew
Point
Rel
Hum
%
Delta-T
°C
Wind Press
QNH
hPa
Press
MSL
hPa
Rain
since 9 am
mm
Dir
 
Spd
km/h
Gust
km/h
Spd
kts
Gust
kts
31/11:53pm 8.1 7.6 7.7 97 0.2 CALM 0 0 0 0 1023.4 1023.4 0.0
31/11:30pm 7.6 7.0 7.2 97 0.2 CALM 0 0 0 0 1023.4 1023.4 0.0
31/11:00pm 8.7 8.3 8.3 97 0.2 CALM 0 0 0 0 1023.3 1023.3 0.0
31/10:30pm 8.7 8.3 8.1 96 0.3 CALM 0 0 0 0 1023.5 1023.5 0.0
31/10:23pm 9.2 8.9 8.7 97 0.2 CALM 0 0 0 0 1023.4 1023.4 0.0
31/10:18pm 9.3 9.0 8.8 97 0.2 CALM 0 0 0 0 1023.4 1023.4 0.0
31/10:00pm 9.1 8.8 8.5 96 0.3 CALM 0 0 0 0 1023.4 1023.4 0.0
31/09:56pm 9.1 8.8 8.5 96 0.3 CALM 0 0 0 0 1023.5 1023.5 0.0
31/09:30pm 9.7 9.5 9.1 96 0.3 CALM 0 0 0 0 1023.4 1023.4 0.0
31/09:28pm 9.9 9.8 9.3 96 0.3 CALM 0 0 0 0 1023.4 1023.4 0.0
31/09:00pm 10.0 9.8 9.2 95 0.4 CALM 0 0 0 0 1023.3 1023.3 0.0
31/08:56pm 10.0 9.8 9.2 95 0.4 CALM 0 0 0 0 1023.3 1023.3 0.0
31/08:40pm 10.3 10.2 9.4 94 0.4 CALM 0 0 0 0 1023.2 1023.2 0.0
31/08:30pm 11.0 11.1 10.2 95 0.4 CALM 0 0 0 0 1023.1 1023.1 0.0
31/08:00pm 11.6 11.8 10.7 94 0.5 CALM 0 0 0 0 1023.1 1023.1 0.0
31/07:30pm 11.9 12.2 10.8 93 0.6 CALM 0 0 0 0 1023.0 1023.0 0.0
31/07:00pm 12.4 12.8 11.1 92 0.7 CALM 0 0 0 0 1022.8 1022.8 0.0
31/06:30pm 13.0 13.3 10.9 87 1.1 CALM 0 0 0 0 1022.5 1022.5 0.0
31/06:00pm 13.8 14.2 11.1 84 1.4 CALM 0 0 0 0 1022.5 1022.5 0.0
31/05:30pm 14.4 14.9 11.6 83 1.5 CALM 0 0 0 0 1022.2 1022.2 0.0
31/05:00pm 14.2 14.5 11.0 81 1.7 CALM 0 0 0 0 1022.0 1022.0 0.0
31/04:30pm 14.7 13.1 10.1 74 2.4 E 9 13 5 7 1021.8 1021.8 0.0
31/04:00pm 15.9 14.6 12.6 81 1.8 NE 11 17 6 9 1021.6 1021.6 0.0
31/03:30pm 15.7 13.7 12.6 82 1.7 NNE 15 20 8 11 1021.3 1021.3 0.0
31/03:00pm 15.8 13.5 12.9 83 1.6 NE 17 20 9 11 1021.0 1021.0 0.0
31/02:30pm 16.8 14.2 13.3 80 2.0 NE 19 22 10 12 1021.0 1021.0 0.0
31/02:00pm 16.9 14.7 13.4 80 2.0 NE 17 20 9 11 1021.2 1021.2 0.0
31/01:30pm 17.1 15.5 12.8 76 2.4 NNE 13 24 7 13 1021.3 1021.3 0.0
31/01:00pm 17.1 15.6 13.0 77 2.3 NE 13 19 7 10 1021.5 1021.5 0.0
31/12:30pm 16.5 14.9 12.7 78 2.1 N 13 19 7 10 1021.8 1021.8 0.0
31/12:00pm 17.5 15.8 13.6 78 2.2 NNE 15 19 8 10 1021.9 1021.9 0.0
31/11:30am 16.7 15.1 12.8 78 2.2 N 13 17 7 9 1022.3 1022.3 0.0
31/11:00am 16.9 15.1 13.2 79 2.1 N 15 19 8 10 1022.5 1022.5 0.0
31/10:30am 16.0 13.8 12.0 77 2.2 N 15 19 8 10 1022.7 1022.7 0.0
31/10:00am 16.3 14.2 12.3 77 2.2 N 15 20 8 11 1022.7 1022.7 0.0
31/09:30am 15.5 15.7 11.9 79 1.9 NNE 2 17 1 9 1022.5 1022.5 0.0
31/09:00am 14.5 15.3 12.4 87 1.1 CALM 0 0 0 0 1022.4 1022.4 0.6
31/08:42am 13.5 14.3 12.4 93 0.6 CALM 0 0 0 0 1022.2 1022.2 0.6
31/08:30am 13.2 14.0 12.6 96 0.3 CALM 0 0 0 0 1022.3 1022.3 0.6
31/08:05am 10.0 8.4 8.8 92 0.6 N 7 9 4 5 1022.0 1022.0 0.6
31/08:00am 11.7 10.9 10.9 95 0.4 N 6 9 3 5 1022.0 1022.0 0.6
31/07:30am 11.2 11.3 10.3 94 0.5 CALM 0 0 0 0 1021.6 1021.6 0.6
31/07:00am 11.0 9.6 8.9 87 1.0 N 6 7 3 4 1021.2 1021.2 0.6
31/06:30am 12.7 11.7 10.9 89 0.9 N 7 11 4 6 1020.9 1020.9 0.6
31/06:00am 12.8 11.4 11.0 89 0.9 NNE 9 11 5 6 1020.7 1020.7 0.6
31/05:30am 12.9 11.5 11.0 88 1.0 NNE 9 13 5 7 1020.6 1020.6 0.6
31/05:00am 13.4 11.0 11.3 87 1.1 NNE 15 19 8 10 1020.4 1020.4 0.6
31/04:30am 13.0 11.7 11.2 89 0.9 NNE 9 15 5 8 1020.2 1020.2 0.6
31/04:00am 13.0 11.5 10.7 86 1.2 NNE 9 13 5 7 1020.1 1020.1 0.6
31/03:30am 13.8 11.7 11.1 84 1.4 NNE 13 17 7 9 1020.0 1020.0 0.6
31/03:00am 14.0 11.9 11.2 83 1.5 NNE 13 19 7 10 1020.0 1020.0 0.6
31/02:30am 13.3 12.1 11.7 90 0.9 NNE 9 11 5 6 1020.1 1020.1 0.6
31/02:00am 11.8 11.7 10.9 94 0.5 N 2 7 1 4 1020.0 1020.0 0.6
31/01:30am 11.8 10.9 10.5 92 0.7 NE 6 7 3 4 1019.8 1019.8 0.6
31/01:00am 11.9 10.6 11.1 95 0.4 NE 9 13 5 7 1019.9 1019.9 0.6
31/12:30am 11.5 10.0 10.6 94 0.5 E 9 11 5 6 1020.1 1020.1 0.6
31/12:00am 12.4 12.9 11.5 94 0.5 CALM 0 7 0 4 1020.3 1020.3 0.6
 
Date/Time
CST
Temp
°C
App
Temp
°C
Dew
Point
Rel
Hum
%
Delta-T
°C
Wind Press
QNH
hPa
Press
MSL
hPa
Rain
since 9 am
mm
Dir
 
Spd
km/h
Gust
km/h
Spd
kts
Gust
kts
30/11:30pm 12.8 11.6 11.7 93 0.6 WSW 9 11 5 6 1020.4 1020.4 0.6
30/11:00pm 13.3 12.8 12.2 93 0.6 WSW 6 11 3 6 1020.4 1020.4 0.6
30/10:30pm 14.1 13.8 12.7 91 0.8 NE 6 9 3 5 1020.0 1020.0 0.6
30/10:00pm 13.2 11.3 11.8 91 0.7 WSW 13 15 7 8 1020.1 1020.1 0.6
30/09:30pm 14.7 13.8 12.6 87 1.1 NNE 9 11 5 6 1020.0 1020.0 0.6
30/09:00pm 14.3 13.2 13.0 92 0.7 NNE 11 15 6 8 1019.9 1019.9 0.6
30/08:30pm 12.6 13.1 11.7 94 0.5 CALM 0 0 0 0 1019.9 1019.9 0.6
30/08:00pm 12.3 11.8 10.7 90 0.8 NNE 4 9 2 5 1019.8 1019.8 0.6
30/07:30pm 13.2 11.7 11.8 91 0.7 NNE 11 15 6 8 1019.5 1019.5 0.6
30/07:00pm 12.9 11.9 11.1 89 0.9 NNE 7 13 4 7 1019.3 1019.3 0.6
30/06:30pm 13.6 12.4 11.7 88 1.0 NNE 9 13 5 7 1018.9 1018.9 0.4
30/06:00pm 14.4 12.9 11.9 85 1.3 N 11 17 6 9 1018.6 1018.6 0.4
30/05:30pm 14.8 13.2 12.7 87 1.1 N 13 20 7 11 1018.3 1018.3 0.4
30/05:00pm 15.0 14.7 13.4 90 0.9 NNW 7 9 4 5 1017.9 1017.9 0.4
30/04:30pm 15.5 13.7 13.2 86 1.3 N 15 22 8 12 1017.6 1017.6 0.0
30/04:00pm 16.2 14.1 13.5 84 1.5 N 17 24 9 13 1017.2 1017.2 0.0
30/03:30pm 16.0 12.4 12.9 82 1.7 N 24 33 13 18 1016.9 1016.9 0.0
30/03:00pm 16.8 13.3 13.3 80 2.0 N 24 32 13 17 1016.6 1016.6 0.0
30/02:30pm 17.1 13.5 13.2 78 2.2 N 24 35 13 19 1016.5 1016.5 0.0
30/02:00pm 16.4 13.2 13.1 81 1.8 N 22 32 12 17 1016.4 1016.4 0.0
30/01:30pm 17.3 14.3 13.6 79 2.1 N 22 32 12 17 1016.4 1016.4 0.0
30/01:00pm 16.8 13.0 12.3 75 2.5 N 24 35 13 19 1016.4 1016.4 0.0
30/12:30pm 16.8 14.2 13.3 80 2.0 N 19 28 10 15 1016.6 1016.6 0.0
30/12:00pm 15.2 11.8 11.4 78 2.0 NNE 20 30 11 16 1017.0 1017.0 0.0
30/11:30am 15.3 11.1 11.1 76 2.2 N 24 33 13 18 1017.3 1017.3 0.0
30/11:00am 15.5 11.3 11.1 75 2.3 N 24 33 13 18 1017.6 1017.6 0.0
30/10:30am 15.2 11.0 11.2 77 2.1 NNE 24 35 13 19 1017.8 1017.8 0.0
30/10:00am 15.1 11.7 11.1 77 2.1 N 20 33 11 18 1017.8 1017.8 0.0
30/09:30am 14.7 11.1 11.8 83 1.6 NNE 22 33 12 18 1017.7 1017.7 0.0
30/09:00am 14.0 10.8 11.9 87 1.1 NNE 20 32 11 17 1017.7 1017.7 5.6
30/08:30am 13.1 10.8 11.8 92 0.7 NE 15 19 8 10 1017.6 1017.6 5.6
30/08:00am 12.7 10.7 11.6 93 0.6 NE 13 19 7 10 1017.6 1017.6 5.4
30/07:30am 12.6 10.6 11.5 93 0.6 NE 13 17 7 9 1017.4 1017.4 4.8
30/07:00am 12.6 10.2 11.3 92 0.7 NNE 15 20 8 11 1017.3 1017.3 4.2
30/06:30am 12.8 11.1 11.2 90 0.8 NNE 11 13 6 7 1017.1 1017.1 2.2
30/06:00am 13.0 11.7 11.2 89 0.9 N 9 13 5 7 1016.8 1016.8 1.4
30/05:30am 14.0 12.4 11.5 85 1.3 NNE 11 15 6 8 1016.8 1016.8 0.4
30/05:00am 14.1 12.2 11.8 86 1.2 NNE 13 19 7 10 1016.4 1016.4 0.4
30/04:30am 14.1 11.7 11.4 84 1.4 NNE 15 20 8 11 1016.2 1016.2 0.2
30/04:00am 14.0 11.5 11.2 83 1.5 NNE 15 20 8 11 1015.8 1015.8 0.0
30/03:30am 13.9 11.4 10.9 82 1.6 NNE 15 24 8 13 1016.1 1016.1 0.0
30/03:00am 14.0 11.2 11.2 83 1.5 NNE 17 24 9 13 1016.3 1016.3 0.0
30/02:30am 14.2 12.1 11.0 81 1.7 NE 13 19 7 10 1016.4 1016.4 0.0
30/02:00am 14.2 11.5 10.4 78 2.0 NNE 15 20 8 11 1016.4 1016.4 0.0
30/01:30am 14.0 10.9 10.4 79 1.9 NNE 17 22 9 12 1016.4 1016.4 0.0
30/01:00am 13.7 10.5 10.1 79 1.9 NNE 17 24 9 13 1016.5 1016.5 0.0
30/12:30am 14.1 10.5 10.5 79 1.9 NNE 20 28 11 15 1016.8 1016.8 0.0
30/12:00am 14.6 11.1 11.0 79 1.9 NNE 20 30 11 16 1017.0 1017.0 0.0
 
Date/Time
CST
Temp
°C
App
Temp
°C
Dew
Point
Rel
Hum
%
Delta-T
°C
Wind Press
QNH
hPa
Press
MSL
hPa
Rain
since 9 am
mm
Dir
 
Spd
km/h
Gust
km/h
Spd
kts
Gust
kts
29/11:30pm 14.3 11.4 10.9 80 1.8 NNE 17 24 9 13 1016.9 1016.9 0.0
29/11:00pm 14.5 10.9 10.7 78 2.0 NNE 20 30 11 16 1017.0 1017.0 0.0
29/10:30pm 14.5 9.5 10.9 79 1.9 NNE 28 37 15 20 1016.9 1016.9 0.0
29/10:00pm 14.7 11.4 11.7 82 1.6 NNE 20 28 11 15 1017.0 1017.0 0.0
29/09:30pm 14.9 11.7 10.1 73 2.5 NNE 17 24 9 13 1017.0 1017.0 0.0
29/09:00pm 14.4 11.6 10.0 75 2.3 NNE 15 24 8 13 1017.0 1017.0 0.0
29/08:30pm 14.3 11.5 10.1 76 2.2 NNE 15 19 8 10 1017.1 1017.1 0.0
29/08:00pm 13.9 12.2 11.1 83 1.5 NNE 11 15 6 8 1017.2 1017.2 0.0
29/07:30pm 14.2 12.3 11.9 86 1.2 NNE 13 19 7 10 1017.0 1017.0 0.0
29/07:00pm 13.7 12.0 11.2 85 1.3 NNE 11 15 6 8 1016.9 1016.9 0.0
29/06:30pm 13.7 11.5 10.9 83 1.5 NNE 13 17 7 9 1016.8 1016.8 0.0
29/06:00pm 13.8 11.7 11.1 84 1.4 NNE 13 17 7 9 1016.6 1016.6 0.0
29/05:30pm 14.0 11.5 11.0 82 1.6 NNE 15 20 8 11 1016.4 1016.4 0.0
29/05:00pm 14.6 12.1 11.2 80 1.8 NNE 15 20 8 11 1016.1 1016.1 0.0
29/04:30pm 15.0 12.6 11.4 79 1.9 NNE 15 22 8 12 1016.0 1016.0 0.0
29/04:00pm 14.8 12.0 11.4 80 1.8 NE 17 24 9 13 1016.1 1016.1 0.0
29/03:30pm 15.5 13.2 11.9 79 1.9 NNE 15 20 8 11 1016.1 1016.1 0.0
29/03:00pm 15.6 12.5 11.6 77 2.2 NNE 19 24 10 13 1016.0 1016.0 0.0
29/02:30pm 15.6 12.8 11.4 76 2.3 NNE 17 24 9 13 1016.2 1016.2 0.0
29/02:00pm 16.2 13.2 12.6 79 2.0 NE 20 28 11 15 1016.4 1016.4 0.0
29/01:30pm 15.8 12.7 11.6 76 2.3 NNE 19 26 10 14 1016.7 1016.7 0.0
29/01:00pm 15.7 11.9 11.3 75 2.4 N 22 30 12 16 1016.9 1016.9 0.0
29/12:30pm 15.0 11.0 10.4 74 2.4 NNE 22 32 12 17 1017.3 1017.3 0.0
29/12:00pm 15.8 12.7 11.6 76 2.3 NNE 19 26 10 14 1017.6 1017.6 0.0
29/11:30am 15.1 11.2 10.9 76 2.2 N 22 32 12 17 1017.9 1017.9 0.0
29/11:00am 15.3 11.0 10.7 74 2.4 NNE 24 33 13 18 1018.1 1018.1 0.0
29/10:30am 15.0 11.5 10.8 76 2.2 NNE 20 28 11 15 1018.2 1018.2 0.0
29/10:00am 14.5 11.1 10.5 77 2.1 NNE 19 26 10 14 1018.2 1018.2 0.0
29/09:30am 14.0 11.2 10.0 77 2.1 NNE 15 20 8 11 1018.2 1018.2 0.0
29/09:00am 13.1 10.4 10.5 84 1.3 N 15 20 8 11 1018.3 1018.3 0.6
29/08:30am 8.9 8.2 8.6 98 0.1 N 2 7 1 4 1018.3 1018.3 0.6
29/08:00am 6.2 5.2 5.8 97 0.2 CALM 0 0 0 0 1018.0 1018.0 0.6
29/07:30am 5.8 4.8 5.4 97 0.2 CALM 0 0 0 0 1017.9 1017.9 0.6
29/07:00am 6.0 5.0 5.6 97 0.2 CALM 0 0 0 0 1017.9 1017.9 0.6
29/06:30am 6.0 5.0 5.4 96 0.3 CALM 0 0 0 0 1017.8 1017.8 0.6
29/06:00am 6.5 5.6 6.1 97 0.2 CALM 0 0 0 0 1017.6 1017.6 0.6
29/05:30am 6.8 5.9 6.2 96 0.3 CALM 0 0 0 0 1017.5 1017.5 0.6
29/05:00am 6.5 5.6 5.9 96 0.3 CALM 0 0 0 0 1017.5 1017.5 0.6
29/04:30am 7.5 6.8 6.8 95 0.3 CALM 0 0 0 0 1017.5 1017.5 0.6
29/04:00am 9.0 8.6 8.4 96 0.3 CALM 0 0 0 0 1017.5 1017.5 0.6

Other Formats:

Comma delimited format used in spreadsheet applications
http://www.bom.gov.au/fwo/IDS60801/IDS60801.95807.axf

JavaScript Object Notation format (JSON) in row-major order
http://www.bom.gov.au/fwo/IDS60801/IDS60801.95807.json